Shickley, Nebraska
Current Conditions -  °F | °C
As of 7:55 AM on Monday 24 Nov 2014 (Local Time) from KHJH Reporting Station
Clear Clear  
Wind Chill: 15°   Ceiling: Unl
Heat Index: 28°   Visibility: 10mi
Dew Point: 18°   Wind: 22mph
Humidity: 66%   Direction: 310°NW
Pressure: 29.74"   Gusts: 30mph
Location:  40.42°N, 97.72°W
Report Text: KHJH 241355Z AUTO 31019G26KT 10SM CLR M02/M08 A2974 RMK AO2 T10201076
Loading
Personal Weather Stations






























Interactive Weather Map New forecast layout! Learn more

10-Day Weather Forecast

Advertisements
Track Severe Weather on mobile